Terminal Aerodrome Forecast
Issued by NWS Quad Cities IA IL

Home | Current Version | Previous Version | Text Only | Print | Product List | Glossary On
Versions: 1 2 3 4 5 6 7 8 9 10 11 12 13 14 15 16 17 18
000
FTUS43 KDVN 290520
TAFDBQ
TAF
KDBQ 290520Z 2906/3006 03006KT P6SM BKN008 OVC015
     FM291500 36007KT P6SM BKN025
     FM291900 02012KT P6SM BKN035
     FM300000 35006KT P6SM BKN050=

USA.gov is the U.S. government's official web portal to all federal, state and local government web resources and services.